sensor_id;sensor_type;location;lat;lon;timestamp;temperature;humidity
25871;DHT22;13689;48.590;7.752;2022-11-25T00:00:23;8.70;89.10
25871;DHT22;13689;48.590;7.752;2022-11-25T00:02:48;8.70;89.20
25871;DHT22;13689;48.590;7.752;2022-11-25T00:05:14;8.70;89.10
25871;DHT22;13689;48.590;7.752;2022-11-25T00:07:39;8.70;89.30
25871;DHT22;13689;48.590;7.752;2022-11-25T00:10:05;8.60;89.30
25871;DHT22;13689;48.590;7.752;2022-11-25T00:12:30;8.60;89.20
25871;DHT22;13689;48.590;7.752;2022-11-25T00:14:56;8.60;89.20
25871;DHT22;13689;48.590;7.752;2022-11-25T00:17:21;8.60;89.50
25871;DHT22;13689;48.590;7.752;2022-11-25T00:19:47;8.60;89.20
25871;DHT22;13689;48.590;7.752;2022-11-25T00:22:13;8.60;89.40
25871;DHT22;13689;48.590;7.752;2022-11-25T00:24:39;8.60;89.40
25871;DHT22;13689;48.590;7.752;2022-11-25T00:27:05;8.60;89.50
25871;DHT22;13689;48.590;7.752;2022-11-25T00:29:30;8.60;89.50
25871;DHT22;13689;48.590;7.752;2022-11-25T00:31:56;8.60;89.40
25871;DHT22;13689;48.590;7.752;2022-11-25T00:34:21;8.60;89.50
25871;DHT22;13689;48.590;7.752;2022-11-25T00:36:47;8.60;89.30
25871;DHT22;13689;48.590;7.752;2022-11-25T00:39:13;8.60;89.40
25871;DHT22;13689;48.590;7.752;2022-11-25T00:41:39;8.50;89.40
25871;DHT22;13689;48.590;7.752;2022-11-25T00:44:23;8.60;89.40
25871;DHT22;13689;48.590;7.752;2022-11-25T00:47:08;8.60;89.50
25871;DHT22;13689;48.590;7.752;2022-11-25T00:49:34;8.50;89.30
25871;DHT22;13689;48.590;7.752;2022-11-25T00:52:00;8.60;89.40
25871;DHT22;13689;48.590;7.752;2022-11-25T00:54:25;8.60;89.40
25871;DHT22;13689;48.590;7.752;2022-11-25T00:56:51;8.60;89.40
25871;DHT22;13689;48.590;7.752;2022-11-25T00:59:17;8.60;89.40
25871;DHT22;13689;48.590;7.752;2022-11-25T01:01:43;8.60;89.40
25871;DHT22;13689;48.590;7.752;2022-11-25T01:04:08;8.60;89.40
25871;DHT22;13689;48.590;7.752;2022-11-25T01:06:34;8.60;89.40
25871;DHT22;13689;48.590;7.752;2022-11-25T01:09:00;8.50;89.30
25871;DHT22;13689;48.590;7.752;2022-11-25T01:11:26;8.50;89.30
25871;DHT22;13689;48.590;7.752;2022-11-25T01:13:51;8.50;89.50
25871;DHT22;13689;48.590;7.752;2022-11-25T01:16:19;8.50;89.50
25871;DHT22;13689;48.590;7.752;2022-11-25T01:18:45;8.50;89.50
25871;DHT22;13689;48.590;7.752;2022-11-25T01:21:21;8.60;89.50
25871;DHT22;13689;48.590;7.752;2022-11-25T01:23:46;8.60;89.40
25871;DHT22;13689;48.590;7.752;2022-11-25T01:26:24;8.60;89.40
25871;DHT22;13689;48.590;7.752;2022-11-25T01:28:54;8.50;89.00
25871;DHT22;13689;48.590;7.752;2022-11-25T01:31:20;8.50;89.30
25871;DHT22;13689;48.590;7.752;2022-11-25T01:33:47;8.40;89.50
25871;DHT22;13689;48.590;7.752;2022-11-25T01:36:13;8.50;89.60
25871;DHT22;13689;48.590;7.752;2022-11-25T01:38:39;8.50;89.70
25871;DHT22;13689;48.590;7.752;2022-11-25T01:41:06;8.50;89.60
25871;DHT22;13689;48.590;7.752;2022-11-25T01:43:31;8.50;89.50
25871;DHT22;13689;48.590;7.752;2022-11-25T01:46:42;8.60;89.60
25871;DHT22;13689;48.590;7.752;2022-11-25T01:48:45;8.50;89.50
25871;DHT22;13689;48.590;7.752;2022-11-25T01:51:21;8.60;89.40
25871;DHT22;13689;48.590;7.752;2022-11-25T01:53:48;8.50;89.30
25871;DHT22;13689;48.590;7.752;2022-11-25T01:56:14;8.50;89.30
25871;DHT22;13689;48.590;7.752;2022-11-25T01:58:40;8.50;89.30
25871;DHT22;13689;48.590;7.752;2022-11-25T02:01:06;8.50;89.30
25871;DHT22;13689;48.590;7.752;2022-11-25T02:03:33;8.50;89.30
25871;DHT22;13689;48.590;7.752;2022-11-25T02:06:12;8.50;89.30
25871;DHT22;13689;48.590;7.752;2022-11-25T02:08:39;8.50;89.40
25871;DHT22;13689;48.590;7.752;2022-11-25T02:11:05;8.50;89.40
25871;DHT22;13689;48.590;7.752;2022-11-25T02:13:31;8.50;89.40
25871;DHT22;13689;48.590;7.752;2022-11-25T02:15:57;8.60;89.30
25871;DHT22;13689;48.590;7.752;2022-11-25T02:18:23;8.50;89.30
25871;DHT22;13689;48.590;7.752;2022-11-25T02:20:49;8.50;89.40
25871;DHT22;13689;48.590;7.752;2022-11-25T02:23:36;8.60;89.50
25871;DHT22;13689;48.590;7.752;2022-11-25T02:26:03;8.60;89.40
25871;DHT22;13689;48.590;7.752;2022-11-25T02:28:29;8.60;89.50
25871;DHT22;13689;48.590;7.752;2022-11-25T02:30:55;8.60;89.40
25871;DHT22;13689;48.590;7.752;2022-11-25T02:33:21;8.60;89.20
25871;DHT22;13689;48.590;7.752;2022-11-25T02:35:47;8.60;89.30
25871;DHT22;13689;48.590;7.752;2022-11-25T02:38:15;8.60;89.40
25871;DHT22;13689;48.590;7.752;2022-11-25T02:43:06;8.60;89.40
25871;DHT22;13689;48.590;7.752;2022-11-25T02:45:34;8.50;89.30
25871;DHT22;13689;48.590;7.752;2022-11-25T02:48:01;8.50;89.30
25871;DHT22;13689;48.590;7.752;2022-11-25T02:50:26;8.50;89.30
25871;DHT22;13689;48.590;7.752;2022-11-25T02:52:52;8.50;89.30
25871;DHT22;13689;48.590;7.752;2022-11-25T02:55:17;8.50;89.30
25871;DHT22;13689;48.590;7.752;2022-11-25T02:57:43;8.40;89.20
25871;DHT22;13689;48.590;7.752;2022-11-25T03:00:08;8.50;89.40
25871;DHT22;13689;48.590;7.752;2022-11-25T03:02:34;8.40;89.50
25871;DHT22;13689;48.590;7.752;2022-11-25T03:05:00;8.40;89.50
25871;DHT22;13689;48.590;7.752;2022-11-25T03:07:25;8.50;89.40
25871;DHT22;13689;48.590;7.752;2022-11-25T03:09:50;8.40;89.50
25871;DHT22;13689;48.590;7.752;2022-11-25T03:12:16;8.50;89.60
25871;DHT22;13689;48.590;7.752;2022-11-25T03:14:45;8.50;89.60
25871;DHT22;13689;48.590;7.752;2022-11-25T03:17:11;8.50;89.50
25871;DHT22;13689;48.590;7.752;2022-11-25T03:19:37;8.50;89.50
25871;DHT22;13689;48.590;7.752;2022-11-25T03:22:03;8.50;89.40
25871;DHT22;13689;48.590;7.752;2022-11-25T03:24:28;8.50;89.30
25871;DHT22;13689;48.590;7.752;2022-11-25T03:26:54;8.50;89.30
25871;DHT22;13689;48.590;7.752;2022-11-25T03:29:19;8.40;89.30
25871;DHT22;13689;48.590;7.752;2022-11-25T03:31:45;8.30;89.30
25871;DHT22;13689;48.590;7.752;2022-11-25T03:34:11;8.30;89.40
25871;DHT22;13689;48.590;7.752;2022-11-25T03:36:36;8.30;89.60
25871;DHT22;13689;48.590;7.752;2022-11-25T03:39:02;8.20;89.60
25871;DHT22;13689;48.590;7.752;2022-11-25T03:41:28;8.20;89.80
25871;DHT22;13689;48.590;7.752;2022-11-25T03:43:53;8.10;89.70
25871;DHT22;13689;48.590;7.752;2022-11-25T03:46:19;8.10;89.90
25871;DHT22;13689;48.590;7.752;2022-11-25T03:48:44;8.10;90.00
25871;DHT22;13689;48.590;7.752;2022-11-25T03:51:10;8.10;90.00
25871;DHT22;13689;48.590;7.752;2022-11-25T03:53:35;8.10;90.00
25871;DHT22;13689;48.590;7.752;2022-11-25T03:56:00;8.20;90.00
25871;DHT22;13689;48.590;7.752;2022-11-25T03:58:26;8.20;90.10
25871;DHT22;13689;48.590;7.752;2022-11-25T04:00:51;8.20;90.10
25871;DHT22;13689;48.590;7.752;2022-11-25T04:03:17;8.20;90.10
25871;DHT22;13689;48.590;7.752;2022-11-25T04:05:42;8.30;90.10
25871;DHT22;13689;48.590;7.752;2022-11-25T04:08:08;8.30;90.00
25871;DHT22;13689;48.590;7.752;2022-11-25T04:10:33;8.30;90.00
25871;DHT22;13689;48.590;7.752;2022-11-25T04:12:59;8.30;90.00
25871;DHT22;13689;48.590;7.752;2022-11-25T04:15:24;8.30;90.10
25871;DHT22;13689;48.590;7.752;2022-11-25T04:17:50;8.30;90.00
25871;DHT22;13689;48.590;7.752;2022-11-25T04:20:15;8.40;90.10
25871;DHT22;13689;48.590;7.752;2022-11-25T04:22:41;8.40;90.10
25871;DHT22;13689;48.590;7.752;2022-11-25T04:25:07;8.40;90.00
25871;DHT22;13689;48.590;7.752;2022-11-25T04:27:32;8.40;90.00
25871;DHT22;13689;48.590;7.752;2022-11-25T04:29:58;8.40;90.00
25871;DHT22;13689;48.590;7.752;2022-11-25T04:32:24;8.40;90.00
25871;DHT22;13689;48.590;7.752;2022-11-25T04:34:49;8.40;90.00
25871;DHT22;13689;48.590;7.752;2022-11-25T04:37:15;8.40;90.00
25871;DHT22;13689;48.590;7.752;2022-11-25T04:39:40;8.40;90.10
25871;DHT22;13689;48.590;7.752;2022-11-25T04:42:06;8.40;90.10
25871;DHT22;13689;48.590;7.752;2022-11-25T04:44:50;8.40;90.10
25871;DHT22;13689;48.590;7.752;2022-11-25T04:47:15;8.40;90.10
25871;DHT22;13689;48.590;7.752;2022-11-25T04:49:41;8.40;90.00
25871;DHT22;13689;48.590;7.752;2022-11-25T04:52:06;8.40;90.10
25871;DHT22;13689;48.590;7.752;2022-11-25T04:54:32;8.40;90.10
25871;DHT22;13689;48.590;7.752;2022-11-25T04:56:57;8.40;90.00
25871;DHT22;13689;48.590;7.752;2022-11-25T04:59:23;8.40;90.00
25871;DHT22;13689;48.590;7.752;2022-11-25T05:02:04;8.40;90.00
25871;DHT22;13689;48.590;7.752;2022-11-25T05:04:29;8.40;90.00
25871;DHT22;13689;48.590;7.752;2022-11-25T05:06:55;8.40;90.10
25871;DHT22;13689;48.590;7.752;2022-11-25T05:09:20;8.40;90.10
25871;DHT22;13689;48.590;7.752;2022-11-25T05:11:46;8.50;90.10
25871;DHT22;13689;48.590;7.752;2022-11-25T05:14:11;8.50;90.10
25871;DHT22;13689;48.590;7.752;2022-11-25T05:16:37;8.50;90.00
25871;DHT22;13689;48.590;7.752;2022-11-25T05:19:03;8.60;90.00
25871;DHT22;13689;48.590;7.752;2022-11-25T05:21:29;8.60;90.00
25871;DHT22;13689;48.590;7.752;2022-11-25T05:23:55;8.60;90.00
25871;DHT22;13689;48.590;7.752;2022-11-25T05:26:20;8.60;90.00
25871;DHT22;13689;48.590;7.752;2022-11-25T05:28:46;8.60;90.00
25871;DHT22;13689;48.590;7.752;2022-11-25T05:31:12;8.60;90.00
25871;DHT22;13689;48.590;7.752;2022-11-25T05:33:37;8.60;90.00
25871;DHT22;13689;48.590;7.752;2022-11-25T05:36:03;8.60;90.00
25871;DHT22;13689;48.590;7.752;2022-11-25T05:38:31;8.50;90.00
25871;DHT22;13689;48.590;7.752;2022-11-25T05:41:01;8.60;90.10
25871;DHT22;13689;48.590;7.752;2022-11-25T05:43:30;8.60;90.10
25871;DHT22;13689;48.590;7.752;2022-11-25T05:45:55;8.70;90.00
25871;DHT22;13689;48.590;7.752;2022-11-25T05:48:21;8.70;90.00
25871;DHT22;13689;48.590;7.752;2022-11-25T05:50:47;8.70;90.00
25871;DHT22;13689;48.590;7.752;2022-11-25T05:53:12;8.70;90.00
25871;DHT22;13689;48.590;7.752;2022-11-25T05:55:38;8.60;89.90
25871;DHT22;13689;48.590;7.752;2022-11-25T05:58:04;8.70;90.00
25871;DHT22;13689;48.590;7.752;2022-11-25T06:00:39;8.70;90.00
25871;DHT22;13689;48.590;7.752;2022-11-25T06:03:10;8.70;90.00
25871;DHT22;13689;48.590;7.752;2022-11-25T06:05:37;8.70;89.90
25871;DHT22;13689;48.590;7.752;2022-11-25T06:08:02;8.70;90.00
25871;DHT22;13689;48.590;7.752;2022-11-25T06:10:28;8.70;89.90
25871;DHT22;13689;48.590;7.752;2022-11-25T06:12:53;8.70;89.80
25871;DHT22;13689;48.590;7.752;2022-11-25T06:15:19;8.70;89.80
25871;DHT22;13689;48.590;7.752;2022-11-25T06:17:44;8.80;89.80
25871;DHT22;13689;48.590;7.752;2022-11-25T06:20:10;8.80;89.80
25871;DHT22;13689;48.590;7.752;2022-11-25T06:22:35;8.80;89.80
25871;DHT22;13689;48.590;7.752;2022-11-25T06:25:01;8.80;89.80
25871;DHT22;13689;48.590;7.752;2022-11-25T06:27:27;8.80;89.90
25871;DHT22;13689;48.590;7.752;2022-11-25T06:29:52;8.80;89.80
25871;DHT22;13689;48.590;7.752;2022-11-25T06:32:18;8.80;89.80
25871;DHT22;13689;48.590;7.752;2022-11-25T06:34:43;8.90;89.80
25871;DHT22;13689;48.590;7.752;2022-11-25T06:37:09;8.90;89.80
25871;DHT22;13689;48.590;7.752;2022-11-25T06:39:34;8.90;89.80
25871;DHT22;13689;48.590;7.752;2022-11-25T06:42:00;8.90;89.80
25871;DHT22;13689;48.590;7.752;2022-11-25T06:44:25;8.90;89.80
25871;DHT22;13689;48.590;7.752;2022-11-25T06:46:51;9.00;89.70
25871;DHT22;13689;48.590;7.752;2022-11-25T06:49:16;9.00;89.70
25871;DHT22;13689;48.590;7.752;2022-11-25T06:51:42;9.00;89.60
25871;DHT22;13689;48.590;7.752;2022-11-25T06:54:07;9.00;89.60
25871;DHT22;13689;48.590;7.752;2022-11-25T06:56:34;9.00;89.70
25871;DHT22;13689;48.590;7.752;2022-11-25T06:59:00;9.00;89.50
25871;DHT22;13689;48.590;7.752;2022-11-25T07:01:26;9.00;89.50
25871;DHT22;13689;48.590;7.752;2022-11-25T07:03:53;9.00;89.60
25871;DHT22;13689;48.590;7.752;2022-11-25T07:06:19;9.00;89.60
25871;DHT22;13689;48.590;7.752;2022-11-25T07:08:46;9.00;89.70
25871;DHT22;13689;48.590;7.752;2022-11-25T07:11:16;9.00;89.90
25871;DHT22;13689;48.590;7.752;2022-11-25T07:13:42;9.00;89.90
25871;DHT22;13689;48.590;7.752;2022-11-25T07:16:09;8.90;89.90
25871;DHT22;13689;48.590;7.752;2022-11-25T07:18:35;8.90;90.00
25871;DHT22;13689;48.590;7.752;2022-11-25T07:21:04;8.90;90.00
25871;DHT22;13689;48.590;7.752;2022-11-25T07:23:31;8.80;90.10
25871;DHT22;13689;48.590;7.752;2022-11-25T07:26:04;8.80;90.20
25871;DHT22;13689;48.590;7.752;2022-11-25T07:28:30;8.70;90.20
25871;DHT22;13689;48.590;7.752;2022-11-25T07:31:02;8.70;90.40
25871;DHT22;13689;48.590;7.752;2022-11-25T07:33:27;8.70;90.50
25871;DHT22;13689;48.590;7.752;2022-11-25T07:35:53;8.70;90.60
25871;DHT22;13689;48.590;7.752;2022-11-25T07:38:19;8.70;90.70
25871;DHT22;13689;48.590;7.752;2022-11-25T07:40:44;8.70;90.70
25871;DHT22;13689;48.590;7.752;2022-11-25T07:43:09;8.70;90.80
25871;DHT22;13689;48.590;7.752;2022-11-25T07:45:35;8.70;90.80
25871;DHT22;13689;48.590;7.752;2022-11-25T07:48:00;8.70;90.80
25871;DHT22;13689;48.590;7.752;2022-11-25T07:50:27;8.70;90.90
25871;DHT22;13689;48.590;7.752;2022-11-25T07:52:52;8.70;90.90
25871;DHT22;13689;48.590;7.752;2022-11-25T07:55:18;8.70;90.90
25871;DHT22;13689;48.590;7.752;2022-11-25T07:57:43;8.70;91.00
25871;DHT22;13689;48.590;7.752;2022-11-25T08:00:09;8.80;91.00
25871;DHT22;13689;48.590;7.752;2022-11-25T08:02:34;8.80;91.00
25871;DHT22;13689;48.590;7.752;2022-11-25T08:05:00;8.70;91.00
25871;DHT22;13689;48.590;7.752;2022-11-25T08:07:25;8.80;91.10
25871;DHT22;13689;48.590;7.752;2022-11-25T08:09:51;8.80;91.10
25871;DHT22;13689;48.590;7.752;2022-11-25T08:12:17;8.90;91.20
25871;DHT22;13689;48.590;7.752;2022-11-25T08:14:42;8.90;91.20
25871;DHT22;13689;48.590;7.752;2022-11-25T08:17:08;8.90;91.10
25871;DHT22;13689;48.590;7.752;2022-11-25T08:19:33;8.90;91.10
25871;DHT22;13689;48.590;7.752;2022-11-25T08:22:00;9.00;91.20
25871;DHT22;13689;48.590;7.752;2022-11-25T08:24:25;9.00;91.20
25871;DHT22;13689;48.590;7.752;2022-11-25T08:26:51;9.00;91.20
25871;DHT22;13689;48.590;7.752;2022-11-25T08:29:18;9.10;91.20
25871;DHT22;13689;48.590;7.752;2022-11-25T08:31:44;9.10;91.20
25871;DHT22;13689;48.590;7.752;2022-11-25T08:34:10;9.20;91.20
25871;DHT22;13689;48.590;7.752;2022-11-25T08:36:40;9.20;91.20
25871;DHT22;13689;48.590;7.752;2022-11-25T08:39:06;9.20;91.10
25871;DHT22;13689;48.590;7.752;2022-11-25T08:41:32;9.10;91.20
25871;DHT22;13689;48.590;7.752;2022-11-25T08:43:59;9.20;91.30
25871;DHT22;13689;48.590;7.752;2022-11-25T08:46:26;9.20;91.30
25871;DHT22;13689;48.590;7.752;2022-11-25T08:48:51;9.10;91.40
25871;DHT22;13689;48.590;7.752;2022-11-25T08:51:19;9.10;91.50
25871;DHT22;13689;48.590;7.752;2022-11-25T08:53:45;9.10;91.50
25871;DHT22;13689;48.590;7.752;2022-11-25T08:56:11;9.10;91.50
25871;DHT22;13689;48.590;7.752;2022-11-25T08:58:37;9.00;91.60
25871;DHT22;13689;48.590;7.752;2022-11-25T09:01:04;9.00;91.60
25871;DHT22;13689;48.590;7.752;2022-11-25T09:03:33;9.00;91.70
25871;DHT22;13689;48.590;7.752;2022-11-25T09:05:59;9.10;91.80
25871;DHT22;13689;48.590;7.752;2022-11-25T09:08:25;9.10;91.80
25871;DHT22;13689;48.590;7.752;2022-11-25T09:10:50;9.20;91.80
25871;DHT22;13689;48.590;7.752;2022-11-25T09:13:16;9.20;91.80
25871;DHT22;13689;48.590;7.752;2022-11-25T09:15:41;9.40;91.80
25871;DHT22;13689;48.590;7.752;2022-11-25T09:18:07;9.50;91.80
25871;DHT22;13689;48.590;7.752;2022-11-25T09:20:35;9.70;91.70
25871;DHT22;13689;48.590;7.752;2022-11-25T09:23:01;9.80;91.60
25871;DHT22;13689;48.590;7.752;2022-11-25T09:25:27;10.00;91.60
25871;DHT22;13689;48.590;7.752;2022-11-25T09:27:53;10.00;91.50
25871;DHT22;13689;48.590;7.752;2022-11-25T09:30:19;9.90;91.50
25871;DHT22;13689;48.590;7.752;2022-11-25T09:32:46;9.90;91.60
25871;DHT22;13689;48.590;7.752;2022-11-25T09:35:12;9.80;91.70
25871;DHT22;13689;48.590;7.752;2022-11-25T09:37:38;9.80;91.70
25871;DHT22;13689;48.590;7.752;2022-11-25T09:40:04;9.80;91.70
25871;DHT22;13689;48.590;7.752;2022-11-25T09:42:40;9.80;91.70
25871;DHT22;13689;48.590;7.752;2022-11-25T09:45:27;9.70;91.80
25871;DHT22;13689;48.590;7.752;2022-11-25T09:55:58;9.70;91.90
25871;DHT22;13689;48.590;7.752;2022-11-25T10:00:58;9.70;92.00
25871;DHT22;13689;48.590;7.752;2022-11-25T10:06:03;9.80;91.90
25871;DHT22;13689;48.590;7.752;2022-11-25T10:08:32;9.80;91.90
25871;DHT22;13689;48.590;7.752;2022-11-25T10:11:09;9.80;91.90
25871;DHT22;13689;48.590;7.752;2022-11-25T10:13:47;9.90;91.80
25871;DHT22;13689;48.590;7.752;2022-11-25T10:16:28;9.90;91.70
25871;DHT22;13689;48.590;7.752;2022-11-25T10:18:57;10.00;91.80
25871;DHT22;13689;48.590;7.752;2022-11-25T10:21:23;10.00;91.80
25871;DHT22;13689;48.590;7.752;2022-11-25T10:23:49;10.00;91.80
25871;DHT22;13689;48.590;7.752;2022-11-25T10:26:16;10.00;91.80
25871;DHT22;13689;48.590;7.752;2022-11-25T10:28:46;10.00;91.80
25871;DHT22;13689;48.590;7.752;2022-11-25T10:31:17;10.00;91.80
25871;DHT22;13689;48.590;7.752;2022-11-25T10:33:44;10.00;91.80
25871;DHT22;13689;48.590;7.752;2022-11-25T10:38:56;10.00;91.90
25871;DHT22;13689;48.590;7.752;2022-11-25T10:41:23;10.00;91.90
25871;DHT22;13689;48.590;7.752;2022-11-25T10:43:48;10.10;91.90
25871;DHT22;13689;48.590;7.752;2022-11-25T10:56:56;10.40;91.70
25871;DHT22;13689;48.590;7.752;2022-11-25T11:02:05;10.50;91.60
25871;DHT22;13689;48.590;7.752;2022-11-25T11:04:47;10.50;91.60
25871;DHT22;13689;48.590;7.752;2022-11-25T11:07:14;10.50;91.60
25871;DHT22;13689;48.590;7.752;2022-11-25T11:09:39;10.50;91.60
25871;DHT22;13689;48.590;7.752;2022-11-25T11:12:12;10.60;91.70
25871;DHT22;13689;48.590;7.752;2022-11-25T11:14:38;10.60;91.70
25871;DHT22;13689;48.590;7.752;2022-11-25T11:17:04;10.70;91.60
25871;DHT22;13689;48.590;7.752;2022-11-25T11:19:30;10.80;91.60
25871;DHT22;13689;48.590;7.752;2022-11-25T11:21:56;10.80;91.40
25871;DHT22;13689;48.590;7.752;2022-11-25T11:24:38;10.90;91.40
25871;DHT22;13689;48.590;7.752;2022-11-25T11:27:05;10.90;91.40
25871;DHT22;13689;48.590;7.752;2022-11-25T11:29:31;10.90;91.30
25871;DHT22;13689;48.590;7.752;2022-11-25T11:32:00;11.00;91.30
25871;DHT22;13689;48.590;7.752;2022-11-25T11:57:52;11.30;91.30
25871;DHT22;13689;48.590;7.752;2022-11-25T12:00:21;11.30;91.10
25871;DHT22;13689;48.590;7.752;2022-11-25T12:02:53;11.30;91.10
25871;DHT22;13689;48.590;7.752;2022-11-25T12:05:21;11.40;91.20
25871;DHT22;13689;48.590;7.752;2022-11-25T12:07:56;11.50;91.10
25871;DHT22;13689;48.590;7.752;2022-11-25T12:16:02;11.40;90.90
25871;DHT22;13689;48.590;7.752;2022-11-25T12:21:12;11.50;90.90
25871;DHT22;13689;48.590;7.752;2022-11-25T12:23:52;11.50;90.90
25871;DHT22;13689;48.590;7.752;2022-11-25T12:26:21;11.40;90.90
25871;DHT22;13689;48.590;7.752;2022-11-25T12:28:50;11.40;90.90
25871;DHT22;13689;48.590;7.752;2022-11-25T12:31:27;11.30;91.00
25871;DHT22;13689;48.590;7.752;2022-11-25T12:34:06;11.40;91.00
25871;DHT22;13689;48.590;7.752;2022-11-25T12:36:38;11.50;90.90
25871;DHT22;13689;48.590;7.752;2022-11-25T12:39:23;11.60;90.80
25871;DHT22;13689;48.590;7.752;2022-11-25T12:42:00;11.60;90.80
25871;DHT22;13689;48.590;7.752;2022-11-25T12:44:30;11.60;90.80
25871;DHT22;13689;48.590;7.752;2022-11-25T12:46:56;11.60;90.80
25871;DHT22;13689;48.590;7.752;2022-11-25T12:49:26;11.60;90.80
25871;DHT22;13689;48.590;7.752;2022-11-25T12:52:10;11.70;90.80
25871;DHT22;13689;48.590;7.752;2022-11-25T12:59:54;11.60;90.80
25871;DHT22;13689;48.590;7.752;2022-11-25T13:08:04;11.30;90.80
25871;DHT22;13689;48.590;7.752;2022-11-25T13:10:36;11.30;91.00
25871;DHT22;13689;48.590;7.752;2022-11-25T13:15:30;11.50;91.00
25871;DHT22;13689;48.590;7.752;2022-11-25T13:17:58;11.60;90.90
25871;DHT22;13689;48.590;7.752;2022-11-25T13:25:32;11.60;90.70
25871;DHT22;13689;48.590;7.752;2022-11-25T13:27:59;11.60;90.70
25871;DHT22;13689;48.590;7.752;2022-11-25T13:32:57;11.50;90.80
25871;DHT22;13689;48.590;7.752;2022-11-25T13:37:53;11.30;90.80
25871;DHT22;13689;48.590;7.752;2022-11-25T13:42:47;11.20;91.20
25871;DHT22;13689;48.590;7.752;2022-11-25T13:45:32;11.20;91.20
25871;DHT22;13689;48.590;7.752;2022-11-25T13:48:44;11.20;91.10
25871;DHT22;13689;48.590;7.752;2022-11-25T13:50:45;11.20;91.10
25871;DHT22;13689;48.590;7.752;2022-11-25T13:53:19;11.20;91.10
25871;DHT22;13689;48.590;7.752;2022-11-25T13:55:45;11.20;91.10
25871;DHT22;13689;48.590;7.752;2022-11-25T13:58:15;11.20;91.10
25871;DHT22;13689;48.590;7.752;2022-11-25T14:08:36;11.30;90.90
25871;DHT22;13689;48.590;7.752;2022-11-25T14:16:07;11.30;90.90
25871;DHT22;13689;48.590;7.752;2022-11-25T14:18:44;11.30;90.90
25871;DHT22;13689;48.590;7.752;2022-11-25T14:21:16;11.30;90.90
25871;DHT22;13689;48.590;7.752;2022-11-25T14:23:51;11.30;90.90
25871;DHT22;13689;48.590;7.752;2022-11-25T14:26:25;11.30;90.90
25871;DHT22;13689;48.590;7.752;2022-11-25T14:28:54;11.30;90.90
25871;DHT22;13689;48.590;7.752;2022-11-25T14:31:27;11.30;90.90
25871;DHT22;13689;48.590;7.752;2022-11-25T14:33:56;11.30;90.90
25871;DHT22;13689;48.590;7.752;2022-11-25T14:36:26;11.30;90.90
25871;DHT22;13689;48.590;7.752;2022-11-25T14:38:54;11.30;90.90
25871;DHT22;13689;48.590;7.752;2022-11-25T14:44:13;11.20;90.90
25871;DHT22;13689;48.590;7.752;2022-11-25T14:46:49;11.10;90.90
25871;DHT22;13689;48.590;7.752;2022-11-25T14:49:14;11.10;90.90
25871;DHT22;13689;48.590;7.752;2022-11-25T14:51:40;11.10;91.00
25871;DHT22;13689;48.590;7.752;2022-11-25T14:54:06;11.10;91.00
25871;DHT22;13689;48.590;7.752;2022-11-25T14:56:33;11.00;91.00
25871;DHT22;13689;48.590;7.752;2022-11-25T14:58:58;11.00;91.10
25871;DHT22;13689;48.590;7.752;2022-11-25T15:01:26;11.00;91.10
25871;DHT22;13689;48.590;7.752;2022-11-25T15:04:02;11.00;91.10
25871;DHT22;13689;48.590;7.752;2022-11-25T15:06:31;11.00;91.00
25871;DHT22;13689;48.590;7.752;2022-11-25T15:08:57;11.00;91.00
25871;DHT22;13689;48.590;7.752;2022-11-25T15:11:24;11.00;90.90
25871;DHT22;13689;48.590;7.752;2022-11-25T15:16:44;10.80;90.90
25871;DHT22;13689;48.590;7.752;2022-11-25T15:19:13;10.80;91.00
25871;DHT22;13689;48.590;7.752;2022-11-25T15:21:40;10.70;91.10
25871;DHT22;13689;48.590;7.752;2022-11-25T15:24:16;10.70;91.20
25871;DHT22;13689;48.590;7.752;2022-11-25T15:26:49;10.70;91.20
25871;DHT22;13689;48.590;7.752;2022-11-25T15:29:15;10.60;91.20
25871;DHT22;13689;48.590;7.752;2022-11-25T15:31:40;10.60;91.30
25871;DHT22;13689;48.590;7.752;2022-11-25T15:34:10;10.70;91.30
25871;DHT22;13689;48.590;7.752;2022-11-25T15:36:36;10.70;91.30
25871;DHT22;13689;48.590;7.752;2022-11-25T15:41:55;10.70;91.20
25871;DHT22;13689;48.590;7.752;2022-11-25T15:46:51;10.70;91.10
25871;DHT22;13689;48.590;7.752;2022-11-25T15:49:17;10.80;91.10
25871;DHT22;13689;48.590;7.752;2022-11-25T15:51:46;10.80;91.10
25871;DHT22;13689;48.590;7.752;2022-11-25T15:59:41;10.70;91.10
25871;DHT22;13689;48.590;7.752;2022-11-25T16:08:00;10.60;91.10
25871;DHT22;13689;48.590;7.752;2022-11-25T16:10:44;10.60;91.10
25871;DHT22;13689;48.590;7.752;2022-11-25T16:15:48;10.50;91.20
25871;DHT22;13689;48.590;7.752;2022-11-25T16:18:16;10.50;91.30
25871;DHT22;13689;48.590;7.752;2022-11-25T16:20:46;10.50;91.30
25871;DHT22;13689;48.590;7.752;2022-11-25T16:23:12;10.60;91.30
25871;DHT22;13689;48.590;7.752;2022-11-25T16:25:39;10.60;91.30
25871;DHT22;13689;48.590;7.752;2022-11-25T16:28:15;10.60;91.30
25871;DHT22;13689;48.590;7.752;2022-11-25T16:30:41;10.50;91.20
25871;DHT22;13689;48.590;7.752;2022-11-25T16:33:08;10.60;91.30
25871;DHT22;13689;48.590;7.752;2022-11-25T16:35:34;10.60;91.20
25871;DHT22;13689;48.590;7.752;2022-11-25T16:38:00;10.60;91.20
25871;DHT22;13689;48.590;7.752;2022-11-25T16:40:26;10.60;91.20
25871;DHT22;13689;48.590;7.752;2022-11-25T16:42:52;10.60;91.20
25871;DHT22;13689;48.590;7.752;2022-11-25T16:45:19;10.60;91.30
25871;DHT22;13689;48.590;7.752;2022-11-25T16:47:44;10.60;91.30
25871;DHT22;13689;48.590;7.752;2022-11-25T16:50:14;10.60;91.30
25871;DHT22;13689;48.590;7.752;2022-11-25T16:52:40;10.70;91.30
25871;DHT22;13689;48.590;7.752;2022-11-25T16:55:05;10.60;91.10
25871;DHT22;13689;48.590;7.752;2022-11-25T16:57:31;10.60;91.20
25871;DHT22;13689;48.590;7.752;2022-11-25T16:59:58;10.50;91.20
25871;DHT22;13689;48.590;7.752;2022-11-25T17:02:27;10.40;91.30
25871;DHT22;13689;48.590;7.752;2022-11-25T17:04:53;10.40;91.40
25871;DHT22;13689;48.590;7.752;2022-11-25T17:07:18;10.40;91.50
25871;DHT22;13689;48.590;7.752;2022-11-25T17:09:44;10.30;91.50
25871;DHT22;13689;48.590;7.752;2022-11-25T17:12:13;10.30;91.40
25871;DHT22;13689;48.590;7.752;2022-11-25T17:14:40;10.30;91.50
25871;DHT22;13689;48.590;7.752;2022-11-25T17:17:08;10.30;91.50
25871;DHT22;13689;48.590;7.752;2022-11-25T17:19:34;10.30;91.50
25871;DHT22;13689;48.590;7.752;2022-11-25T17:22:00;10.30;91.50
25871;DHT22;13689;48.590;7.752;2022-11-25T17:24:26;10.20;91.50
25871;DHT22;13689;48.590;7.752;2022-11-25T17:26:59;10.20;91.50
25871;DHT22;13689;48.590;7.752;2022-11-25T17:29:30;10.20;91.50
25871;DHT22;13689;48.590;7.752;2022-11-25T17:31:57;10.20;91.50
25871;DHT22;13689;48.590;7.752;2022-11-25T17:34:22;10.20;91.60
25871;DHT22;13689;48.590;7.752;2022-11-25T17:36:50;10.10;91.60
25871;DHT22;13689;48.590;7.752;2022-11-25T17:39:16;10.10;91.60
25871;DHT22;13689;48.590;7.752;2022-11-25T17:41:44;10.10;91.60
25871;DHT22;13689;48.590;7.752;2022-11-25T17:46:45;10.00;91.60
25871;DHT22;13689;48.590;7.752;2022-11-25T17:49:12;10.00;91.70
25871;DHT22;13689;48.590;7.752;2022-11-25T17:51:38;10.00;91.60